Terminal Aerodrome Forecast
Issued by NWS Quad Cities IA IL

Home | Current Version | Previous Version | Graphics & Text | Print | Product List | Glossary On
Versions: 1 2 3 4 5 6 7 8 9 10 11 12
000
FTUS43 KDVN 272326
TAFMLI
TAF
KMLI 272326Z 2800/2824 12005KT P6SM BKN150
     FM281500 15011KT P6SM OVC100
     FM282100 14012KT 6SM -RA BR BKN040=

USA.gov is the U.S. government's official web portal to all federal, state and local government web resources and services.